Time;durP1;ratioP1;P1;durP2;ratioP2;P2;SDS_P1;SDS_P2;PMS_P1;PMS_P2;Temp;Humidity;BMP_temperature;BMP_pressure;BME280_temperature;BME280_humidity;BME280_pressure;Samples;Min_cycle;Max_cycle;Signal;HPM_P1;HPM_P2
2022/09/17 00:01:11;;;;;;;3.60;1.10;;;12.70;76.70;;;;;;4997844;28;20465;-48
2022/09/17 00:03:38;;;;;;;3.40;1.53;;;12.70;76.90;;;;;;4981779;28;20493;-47
2022/09/17 00:06:10;;;;;;;2.90;1.20;;;12.70;76.90;;;;;;4998595;28;20501;-47
2022/09/17 00:08:39;;;;;;;3.27;1.40;;;12.70;76.90;;;;;;4999005;28;20994;-47
2022/09/17 00:11:10;;;;;;;3.13;0.97;;;12.70;77.10;;;;;;4982666;28;20544;-47
2022/09/17 00:13:37;;;;;;;5.67;1.20;;;12.70;77.10;;;;;;4997724;28;20520;-47
2022/09/17 00:16:04;;;;;;;2.40;1.30;;;12.60;77.10;;;;;;4981078;28;20890;-47
2022/09/17 00:18:31;;;;;;;4.97;1.43;;;12.60;77.00;;;;;;4996512;28;21076;-47
2022/09/17 00:20:57;;;;;;;2.93;1.20;;;12.60;77.10;;;;;;4994934;28;20532;-47
2022/09/17 00:23:24;;;;;;;4.37;2.00;;;12.60;76.90;;;;;;5002226;28;20496;-47
2022/09/17 00:25:51;;;;;;;5.00;1.73;;;12.60;77.20;;;;;;4983652;28;20903;-48
2022/09/17 00:28:17;;;;;;;5.17;1.60;;;12.60;77.30;;;;;;4999964;28;20521;-47
2022/09/17 00:30:45;;;;;;;3.90;1.60;;;12.50;77.20;;;;;;4997990;28;20496;-47
2022/09/17 00:33:16;;;;;;;3.50;1.00;;;12.60;77.00;;;;;;4995471;28;20545;-47
2022/09/17 00:35:44;;;;;;;3.00;1.50;;;12.60;77.50;;;;;;4996546;28;20522;-47
2022/09/17 00:38:10;;;;;;;3.30;1.07;;;12.60;77.00;;;;;;4997767;28;20445;-47
2022/09/17 00:40:37;;;;;;;4.27;1.33;;;12.60;77.30;;;;;;5000434;28;20871;-47
2022/09/17 00:43:10;;;;;;;4.50;2.13;;;12.50;77.20;;;;;;5001646;28;20862;-47
2022/09/17 00:45:37;;;;;;;2.30;1.00;;;12.40;77.70;;;;;;4996642;28;21022;-47
2022/09/17 00:48:06;;;;;;;6.37;1.40;;;12.40;77.90;;;;;;4997349;28;20472;-47
2022/09/17 00:50:40;;;;;;;5.60;1.00;;;12.50;77.70;;;;;;4995922;28;20472;-47
2022/09/17 00:53:15;;;;;;;2.87;1.40;;;12.50;77.50;;;;;;4998686;28;20570;-47
2022/09/17 00:55:47;;;;;;;3.47;1.40;;;12.50;77.70;;;;;;4998364;28;20499;-47
2022/09/17 00:58:17;;;;;;;1.70;1.50;;;12.50;77.50;;;;;;4996532;28;20543;-47
2022/09/17 01:00:46;;;;;;;3.30;1.30;;;12.50;77.50;;;;;;4995837;28;20881;-47
2022/09/17 01:03:13;;;;;;;2.30;1.43;;;12.50;77.70;;;;;;4997618;28;20528;-47
2022/09/17 01:06:00;;;;;;;1.97;1.60;;;12.50;77.90;;;;;;4985981;28;20969;-47
2022/09/17 01:09:12;;;;;;;3.43;1.30;;;12.40;78.00;;;;;;4994800;28;20503;-47
2022/09/17 01:12:01;;;;;;;3.07;1.30;;;12.40;77.60;;;;;;4995524;28;20472;-47
2022/09/17 01:14:56;;;;;;;3.60;1.50;;;12.40;77.80;;;;;;4994597;28;20499;-47
2022/09/17 01:17:41;;;;;;;3.93;1.50;;;12.40;78.40;;;;;;4980333;28;20527;-48
2022/09/17 01:20:34;;;;;;;3.33;1.57;;;12.30;78.10;;;;;;4990965;28;20966;-47
2022/09/17 01:23:20;;;;;;;3.17;1.43;;;12.30;78.30;;;;;;4998976;28;20462;-47
2022/09/17 01:26:15;;;;;;;5.70;1.60;;;12.30;78.20;;;;;;4983476;28;21054;-47
2022/09/17 01:28:58;;;;;;;3.10;2.03;;;12.30;78.30;;;;;;4995012;28;20543;-47
2022/09/17 01:31:46;;;;;;;3.33;1.57;;;12.30;78.10;;;;;;4999108;28;20499;-48
2022/09/17 01:34:30;;;;;;;1.93;1.30;;;12.30;78.00;;;;;;4995497;28;20508;-47
2022/09/17 01:37:22;;;;;;;2.47;1.50;;;12.30;78.00;;;;;;4997123;28;20520;-47
2022/09/17 01:40:14;;;;;;;2.93;1.57;;;12.30;78.40;;;;;;4981105;28;20447;-47
2022/09/17 01:42:56;;;;;;;2.40;1.60;;;12.30;78.50;;;;;;4998284;28;20845;-47
2022/09/17 01:45:37;;;;;;;3.20;1.97;;;12.30;78.20;;;;;;4996627;28;20908;-47
2022/09/17 01:48:12;;;;;;;5.93;1.50;;;12.30;78.10;;;;;;4994831;28;20569;-47
2022/09/17 01:50:46;;;;;;;2.80;1.93;;;12.30;77.80;;;;;;5000749;28;20499;-47
2022/09/17 01:53:16;;;;;;;2.80;1.60;;;12.20;78.50;;;;;;4987518;28;20497;-47
2022/09/17 01:55:45;;;;;;;8.30;2.73;;;12.10;78.80;;;;;;4997349;28;20994;-47
2022/09/17 01:58:11;;;;;;;6.63;2.30;;;12.10;78.90;;;;;;5001629;28;21027;-47
2022/09/17 02:00:41;;;;;;;4.00;1.30;;;12.10;78.80;;;;;;4997072;28;20504;-47
2022/09/17 02:03:26;;;;;;;6.60;1.77;;;12.10;78.80;;;;;;4997762;28;20477;-48
2022/09/17 02:06:04;;;;;;;4.50;1.77;;;12.10;79.20;;;;;;4995206;28;20465;-47
2022/09/17 02:08:40;;;;;;;5.00;2.13;;;12.10;79.10;;;;;;4996582;28;20534;-47
2022/09/17 02:11:09;;;;;;;3.00;1.73;;;12.10;78.90;;;;;;4996121;28;21377;-47
2022/09/17 02:14:09;;;;;;;3.47;1.73;;;12.10;79.10;;;;;;4999539;28;20500;-48
2022/09/17 02:16:41;;;;;;;2.93;1.43;;;12.10;79.20;;;;;;4973843;28;20904;-47
2022/09/17 02:19:17;;;;;;;6.60;2.37;;;12.10;79.40;;;;;;4998282;28;20504;-47
2022/09/17 02:22:07;;;;;;;7.53;1.77;;;12.10;79.40;;;;;;4999315;28;20452;-48
2022/09/17 02:24:46;;;;;;;9.67;2.30;;;12.00;79.90;;;;;;4996228;28;20959;-48
2022/09/17 02:27:32;;;;;;;3.33;1.67;;;12.00;80.00;;;;;;4996062;28;20534;-48
2022/09/17 02:29:59;;;;;;;2.50;1.90;;;12.10;79.70;;;;;;4979129;28;20460;-48
2022/09/17 02:32:26;;;;;;;5.70;2.20;;;12.10;79.70;;;;;;4995461;28;20496;-48
2022/09/17 02:34:53;;;;;;;4.33;1.60;;;12.10;79.60;;;;;;4984064;28;20456;-48
2022/09/17 02:37:20;;;;;;;1.70;1.37;;;12.10;79.90;;;;;;4998011;28;20539;-47
2022/09/17 02:39:47;;;;;;;3.80;1.80;;;12.20;79.60;;;;;;4982614;28;20514;-48
2022/09/17 02:42:21;;;;;;;2.47;1.40;;;12.10;79.40;;;;;;4988924;28;20485;-47
2022/09/17 02:45:11;;;;;;;5.33;1.93;;;12.20;79.30;;;;;;4990439;28;20540;-47
2022/09/17 02:48:06;;;;;;;2.50;1.73;;;12.20;79.40;;;;;;4999743;28;20485;-47
2022/09/17 02:51:14;;;;;;;17.63;7.47;;;12.30;78.80;;;;;;4999202;28;20881;-48
2022/09/17 02:53:43;;;;;;;4.37;1.90;;;12.20;78.80;;;;;;4985539;28;20518;-45
2022/09/17 02:56:45;;;;;;;6.23;2.87;;;12.30;79.00;;;;;;4999011;28;20460;-45
2022/09/17 02:59:36;;;;;;;3.40;1.80;;;12.30;78.90;;;;;;4976507;28;20456;-46
2022/09/17 03:02:39;;;;;;;5.10;1.50;;;12.30;79.20;;;;;;4983411;28;20463;-46
2022/09/17 03:05:07;;;;;;;1.70;1.47;;;12.30;79.10;;;;;;4999172;28;20460;-45
2022/09/17 03:07:35;;;;;;;3.67;1.57;;;12.30;78.70;;;;;;5003414;28;20499;-46
2022/09/17 03:10:02;;;;;;;3.40;2.30;;;12.30;78.80;;;;;;4989310;28;20532;-45
2022/09/17 03:12:29;;;;;;;2.13;1.63;;;12.30;78.70;;;;;;4999536;28;20943;-46
2022/09/17 03:14:56;;;;;;;5.63;1.83;;;12.30;78.90;;;;;;5001991;28;20510;-46
2022/09/17 03:17:22;;;;;;;5.40;1.90;;;12.30;78.60;;;;;;5000501;28;20492;-46
2022/09/17 03:19:49;;;;;;;7.20;1.77;;;12.30;78.70;;;;;;5001183;28;20492;-46
2022/09/17 03:22:15;;;;;;;6.77;1.80;;;12.30;78.70;;;;;;4985230;28;20510;-46
2022/09/17 03:24:42;;;;;;;5.23;1.60;;;12.30;78.80;;;;;;4999215;28;20888;-45
2022/09/17 03:27:09;;;;;;;4.83;2.50;;;12.30;78.80;;;;;;5001955;28;20452;-45
2022/09/17 03:29:35;;;;;;;5.70;2.23;;;12.30;78.80;;;;;;4998566;28;20465;-46
2022/09/17 03:32:03;;;;;;;1.70;1.60;;;12.30;79.30;;;;;;4999365;28;20496;-46
2022/09/17 03:34:29;;;;;;;4.20;1.50;;;12.30;79.60;;;;;;5001187;28;21082;-46
2022/09/17 03:36:56;;;;;;;2.90;1.70;;;12.40;79.00;;;;;;4998102;28;20457;-45
2022/09/17 03:39:23;;;;;;;7.50;2.47;;;12.40;78.80;;;;;;4989184;28;20457;-46
2022/09/17 03:41:50;;;;;;;5.40;1.87;;;12.40;78.80;;;;;;4999122;28;20827;-46
2022/09/17 03:44:18;;;;;;;4.53;1.83;;;12.30;79.30;;;;;;4996745;28;20868;-46
2022/09/17 03:46:45;;;;;;;2.80;1.80;;;12.30;79.30;;;;;;4988989;28;20468;-46
2022/09/17 03:49:11;;;;;;;1.97;1.80;;;12.40;79.00;;;;;;4999785;28;20472;-46
2022/09/17 03:51:38;;;;;;;3.60;1.87;;;12.40;79.10;;;;;;4978163;28;20953;-46
2022/09/17 03:54:05;;;;;;;5.50;2.13;;;12.40;78.80;;;;;;4990651;28;20522;-48
2022/09/17 03:56:32;;;;;;;3.30;1.63;;;12.40;79.20;;;;;;4995486;28;20984;-48
2022/09/17 03:58:59;;;;;;;2.20;1.43;;;12.40;79.00;;;;;;4990333;28;20505;-48
2022/09/17 04:01:27;;;;;;;5.40;1.77;;;12.30;79.30;;;;;;4990624;28;20863;-48
2022/09/17 04:03:54;;;;;;;3.70;2.60;;;12.40;79.40;;;;;;4997561;28;20476;-48
2022/09/17 04:06:21;;;;;;;2.87;2.10;;;12.40;79.30;;;;;;4999777;28;21020;-48
2022/09/17 04:08:48;;;;;;;2.57;2.20;;;12.40;79.10;;;;;;5000493;28;20693;-48
2022/09/17 04:11:14;;;;;;;2.80;2.10;;;12.40;79.10;;;;;;4994503;28;20458;-49
2022/09/17 04:13:41;;;;;;;2.70;1.80;;;12.40;79.40;;;;;;4985905;28;20580;-48
2022/09/17 04:16:08;;;;;;;5.03;2.27;;;12.40;79.30;;;;;;4981696;28;20993;-48
2022/09/17 04:18:34;;;;;;;4.63;1.77;;;12.40;79.20;;;;;;4999220;28;20474;-48
2022/09/17 04:21:01;;;;;;;3.50;2.57;;;12.40;79.10;;;;;;4999053;28;20488;-48
2022/09/17 04:23:28;;;;;;;5.80;2.57;;;12.40;79.30;;;;;;4996637;28;20485;-48
2022/09/17 04:25:54;;;;;;;3.43;2.60;;;12.50;79.50;;;;;;4991272;28;20551;-48
2022/09/17 04:28:22;;;;;;;6.23;2.40;;;12.40;79.90;;;;;;4997225;28;20499;-48
2022/09/17 04:30:48;;;;;;;2.57;2.10;;;12.40;79.90;;;;;;5003867;28;20555;-48
2022/09/17 04:33:15;;;;;;;6.13;3.23;;;12.40;79.80;;;;;;5000050;28;20524;-48
2022/09/17 04:35:42;;;;;;;4.77;2.67;;;12.50;79.60;;;;;;5002320;28;20638;-48
2022/09/17 04:38:09;;;;;;;3.57;1.90;;;12.50;79.80;;;;;;4997903;28;20464;-48
2022/09/17 04:40:35;;;;;;;2.97;1.90;;;12.50;79.60;;;;;;4997685;28;20465;-48
2022/09/17 04:43:03;;;;;;;4.00;1.80;;;12.50;79.70;;;;;;4997779;28;20898;-48
2022/09/17 04:45:32;;;;;;;4.43;1.57;;;12.40;80.10;;;;;;4990119;28;20889;-48
2022/09/17 04:47:58;;;;;;;2.20;1.63;;;12.40;80.30;;;;;;4989604;28;20945;-49
2022/09/17 04:50:25;;;;;;;4.80;2.23;;;12.40;80.40;;;;;;4986183;28;20508;-48
2022/09/17 04:52:52;;;;;;;5.30;3.13;;;12.40;80.40;;;;;;4995264;28;20507;-48
2022/09/17 04:55:18;;;;;;;5.67;2.70;;;12.40;80.70;;;;;;4998913;28;20448;-48
2022/09/17 04:57:50;;;;;;;4.37;1.97;;;12.40;80.60;;;;;;4987078;28;20563;-48
2022/09/17 05:00:17;;;;;;;2.60;1.80;;;12.40;80.60;;;;;;4997850;28;20802;-48
2022/09/17 05:02:46;;;;;;;7.27;2.33;;;12.40;80.90;;;;;;4997686;28;20516;-48
2022/09/17 05:05:14;;;;;;;7.20;1.97;;;12.40;80.90;;;;;;4980706;28;20954;-48
2022/09/17 05:07:41;;;;;;;4.30;1.97;;;12.40;80.90;;;;;;4994350;28;20519;-48
2022/09/17 05:10:09;;;;;;;3.00;1.67;;;12.40;81.00;;;;;;4996418;28;20550;-49
2022/09/17 05:12:36;;;;;;;2.80;1.77;;;12.40;81.20;;;;;;4997364;28;20515;-49
2022/09/17 05:15:04;;;;;;;4.13;2.00;;;12.40;80.90;;;;;;4982096;28;20513;-49
2022/09/17 05:17:31;;;;;;;2.40;2.10;;;12.40;81.20;;;;;;4998593;28;20498;-49
2022/09/17 05:19:58;;;;;;;7.57;2.50;;;12.40;81.40;;;;;;4999082;28;20492;-48
2022/09/17 05:22:24;;;;;;;4.57;2.33;;;12.40;81.30;;;;;;4993160;28;20519;-48
2022/09/17 05:24:51;;;;;;;4.70;2.47;;;12.40;81.40;;;;;;4989850;28;20468;-49
2022/09/17 05:27:18;;;;;;;3.97;2.60;;;12.40;81.30;;;;;;4987359;28;20499;-49
2022/09/17 05:29:44;;;;;;;7.97;2.77;;;12.40;81.70;;;;;;4997116;28;20981;-49
2022/09/17 05:32:11;;;;;;;4.30;2.37;;;12.40;81.50;;;;;;4996615;28;20472;-49
2022/09/17 05:34:39;;;;;;;3.80;2.57;;;12.40;81.70;;;;;;4982198;28;20587;-49
2022/09/17 05:37:09;;;;;;;4.77;2.27;;;12.40;81.80;;;;;;4996879;28;20523;-49
2022/09/17 05:39:35;;;;;;;6.67;2.43;;;12.40;81.90;;;;;;4997685;28;20461;-48
2022/09/17 05:42:02;;;;;;;6.03;2.27;;;12.40;81.60;;;;;;4999525;28;20877;-49
2022/09/17 05:44:28;;;;;;;5.53;2.53;;;12.40;81.90;;;;;;4998043;28;20903;-49
2022/09/17 05:46:55;;;;;;;6.40;2.40;;;12.40;81.80;;;;;;4993549;28;20889;-49
2022/09/17 05:49:22;;;;;;;8.27;2.50;;;12.40;81.60;;;;;;4979042;28;20455;-49
2022/09/17 05:51:49;;;;;;;3.93;2.40;;;12.40;81.80;;;;;;4997263;28;20484;-49
2022/09/17 05:54:16;;;;;;;3.30;2.47;;;12.40;81.90;;;;;;4994843;28;20572;-48
2022/09/17 05:56:43;;;;;;;3.50;2.10;;;12.40;81.80;;;;;;4994358;28;20484;-49
2022/09/17 05:59:09;;;;;;;3.37;2.10;;;12.30;82.00;;;;;;4984945;28;20485;-49
2022/09/17 06:01:36;;;;;;;4.10;2.20;;;12.40;81.80;;;;;;4985303;28;20460;-49
2022/09/17 06:04:03;;;;;;;3.70;2.17;;;12.40;81.80;;;;;;4997654;28;20496;-49
2022/09/17 06:06:30;;;;;;;4.00;2.27;;;12.40;81.90;;;;;;4987662;28;20516;-49
2022/09/17 06:09:00;;;;;;;10.47;2.57;;;12.40;81.60;;;;;;4993589;28;20958;-48
2022/09/17 06:11:27;;;;;;;9.23;2.33;;;12.40;81.30;;;;;;4996940;28;20464;-49
2022/09/17 06:13:54;;;;;;;5.87;2.80;;;12.40;81.50;;;;;;4995754;28;21046;-49
2022/09/17 06:16:22;;;;;;;8.03;2.00;;;12.40;81.60;;;;;;4997953;28;20518;-49
2022/09/17 06:18:49;;;;;;;6.53;3.33;;;12.50;81.90;;;;;;5001480;28;20457;-49
2022/09/17 06:21:16;;;;;;;5.93;2.10;;;12.40;82.30;;;;;;4998699;28;20449;-49
2022/09/17 06:23:43;;;;;;;5.00;2.27;;;12.50;82.00;;;;;;5000819;28;20557;-49
2022/09/17 06:26:11;;;;;;;5.33;2.83;;;12.60;81.30;;;;;;4999268;28;20985;-49
2022/09/17 06:28:38;;;;;;;10.00;3.43;;;12.60;80.80;;;;;;5001876;28;21222;-49
2022/09/17 06:31:09;;;;;;;3.77;2.17;;;12.60;80.80;;;;;;4998634;28;20475;-48
2022/09/17 06:33:36;;;;;;;3.67;2.03;;;12.70;80.80;;;;;;4998198;28;20469;-48
2022/09/17 06:36:06;;;;;;;7.57;2.17;;;12.60;80.70;;;;;;4998155;28;20487;-49
2022/09/17 06:38:39;;;;;;;6.20;2.17;;;12.70;80.80;;;;;;5001505;28;20445;-49
2022/09/17 06:41:05;;;;;;;4.50;2.17;;;12.70;80.20;;;;;;4999803;28;21006;-49
2022/09/17 06:43:32;;;;;;;4.83;2.00;;;12.70;80.10;;;;;;5000928;28;20885;-49
2022/09/17 06:46:01;;;;;;;6.03;2.53;;;12.70;80.20;;;;;;4998813;28;20480;-48
2022/09/17 06:48:29;;;;;;;2.20;2.00;;;12.80;80.20;;;;;;4997030;28;20496;-49
2022/09/17 06:51:01;;;;;;;7.20;2.57;;;12.80;80.00;;;;;;4995676;28;21041;-49
2022/09/17 06:53:28;;;;;;;6.33;2.00;;;12.90;80.00;;;;;;5000205;28;20461;-48
2022/09/17 06:55:59;;;;;;;12.10;2.97;;;12.90;79.70;;;;;;5000049;28;21037;-49
2022/09/17 06:58:33;;;;;;;7.40;2.50;;;12.90;79.50;;;;;;4999988;28;20476;-48
2022/09/17 07:01:00;;;;;;;4.47;2.30;;;12.90;79.30;;;;;;4994199;28;20452;-48
2022/09/17 07:03:28;;;;;;;4.77;2.53;;;13.00;79.10;;;;;;5001977;28;20452;-49
2022/09/17 07:05:56;;;;;;;4.80;2.10;;;13.00;79.40;;;;;;5000385;28;20464;-48
2022/09/17 07:08:23;;;;;;;3.87;2.33;;;13.00;79.30;;;;;;4996165;28;21250;-49
2022/09/17 07:10:49;;;;;;;7.13;2.53;;;13.00;79.30;;;;;;5001281;28;20529;-49
2022/09/17 07:13:16;;;;;;;5.90;2.33;;;13.10;79.20;;;;;;4996852;28;20880;-49
2022/09/17 07:15:50;;;;;;;4.90;2.57;;;13.10;79.00;;;;;;4983572;28;20507;-49
2022/09/17 07:18:17;;;;;;;7.20;2.50;;;13.10;79.20;;;;;;4998663;28;20460;-49
2022/09/17 07:20:44;;;;;;;6.47;2.40;;;13.10;78.80;;;;;;5001347;28;20801;-49
2022/09/17 07:23:10;;;;;;;7.43;2.80;;;13.20;77.90;;;;;;4999037;28;20500;-49
2022/09/17 07:25:37;;;;;;;8.90;2.40;;;13.20;78.30;;;;;;4983534;28;20552;-48
2022/09/17 07:28:03;;;;;;;6.00;2.83;;;13.20;78.60;;;;;;4997037;28;21013;-49
2022/09/17 07:30:30;;;;;;;11.77;3.20;;;13.20;78.50;;;;;;5005009;28;20988;-47
2022/09/17 07:33:01;;;;;;;6.83;3.90;;;13.20;78.00;;;;;;4986846;28;20485;-48
2022/09/17 07:35:27;;;;;;;6.93;3.23;;;13.30;78.10;;;;;;5000277;28;20594;-47
2022/09/17 07:37:54;;;;;;;5.50;2.10;;;13.30;78.50;;;;;;4985534;28;20471;-47
2022/09/17 07:40:21;;;;;;;5.33;2.10;;;13.40;77.80;;;;;;4999876;28;20454;-48
2022/09/17 07:42:47;;;;;;;6.13;2.40;;;13.50;77.20;;;;;;4999751;28;20469;-49
2022/09/17 07:45:14;;;;;;;4.67;3.53;;;13.40;77.90;;;;;;4985706;28;20976;-49
2022/09/17 07:47:41;;;;;;;9.67;4.50;;;13.50;78.20;;;;;;5001745;28;20521;-48
2022/09/17 07:50:09;;;;;;;10.20;2.40;;;13.60;77.50;;;;;;5002431;28;20497;-47
2022/09/17 07:52:36;;;;;;;3.47;2.00;;;13.60;77.10;;;;;;4989311;28;20502;-46
2022/09/17 07:55:06;;;;;;;5.37;2.23;;;13.80;75.90;;;;;;4999295;28;20534;-46
2022/09/17 07:57:32;;;;;;;9.97;2.33;;;13.80;75.50;;;;;;4999181;28;21124;-46
2022/09/17 07:59:59;;;;;;;5.83;2.10;;;13.70;76.30;;;;;;4995862;28;20449;-46
2022/09/17 08:02:27;;;;;;;4.57;2.00;;;13.80;76.40;;;;;;4996059;28;20514;-46
2022/09/17 08:04:54;;;;;;;6.53;3.33;;;13.80;76.50;;;;;;4985914;28;20544;-49
2022/09/17 08:07:20;;;;;;;3.83;1.80;;;13.90;76.80;;;;;;4988486;28;20974;-48
2022/09/17 08:10:01;;;;;;;6.53;2.40;;;13.90;76.40;;;;;;5055973;28;20579;-45
2022/09/17 08:12:33;;;;;;;6.17;1.93;;;14.00;76.20;;;;;;5057739;28;20494;-46
2022/09/17 08:15:00;;;;;;;3.90;2.30;;;14.00;75.40;;;;;;5048375;28;20954;-48
2022/09/17 08:17:27;;;;;;;6.90;2.20;;;14.00;76.10;;;;;;5051866;28;20443;-48
2022/09/17 08:19:53;;;;;;;5.80;1.80;;;14.00;76.40;;;;;;5055451;28;20509;-47
2022/09/17 08:22:20;;;;;;;6.17;2.10;;;14.00;75.80;;;;;;5055946;28;20924;-45
2022/09/17 08:24:47;;;;;;;5.70;2.43;;;14.00;75.40;;;;;;5052146;28;20490;-45
2022/09/17 08:27:13;;;;;;;4.33;2.43;;;14.10;75.50;;;;;;5053689;28;20520;-47
2022/09/17 08:29:40;;;;;;;3.60;2.07;;;14.10;75.80;;;;;;5052209;28;21027;-47
2022/09/17 08:32:07;;;;;;;6.77;2.37;;;14.20;74.90;;;;;;5052461;28;20505;-46
2022/09/17 08:34:35;;;;;;;9.63;2.40;;;14.20;74.90;;;;;;5057118;28;20524;-45
2022/09/17 08:37:02;;;;;;;6.53;2.70;;;14.30;75.40;;;;;;5054291;28;20486;-45
2022/09/17 08:39:28;;;;;;;4.53;1.60;;;14.30;75.00;;;;;;5052542;28;20478;-45
2022/09/17 08:42:20;;;;;;;4.97;2.17;;;14.30;74.50;;;;;;5051999;28;21042;-45
2022/09/17 08:44:47;;;;;;;8.63;2.03;;;14.30;75.20;;;;;;5053967;28;20512;-45
2022/09/17 08:47:35;;;;;;;3.77;1.70;;;14.30;75.60;;;;;;5037120;28;20473;-48
2022/09/17 08:50:06;;;;;;;7.27;2.60;;;14.40;74.90;;;;;;5050020;28;20489;-48
2022/09/17 08:52:35;;;;;;;4.83;2.13;;;14.40;74.80;;;;;;5052261;28;20963;-48
2022/09/17 08:55:11;;;;;;;6.07;2.60;;;14.50;74.90;;;;;;5046815;28;20469;-47
2022/09/17 08:57:40;;;;;;;8.13;2.03;;;14.50;74.90;;;;;;5052671;28;20481;-48
2022/09/17 09:00:17;;;;;;;5.47;1.83;;;14.50;73.70;;;;;;5041483;28;20991;-48
2022/09/17 09:02:53;;;;;;;3.97;2.10;;;14.60;72.30;;;;;;5043659;28;20536;-48
2022/09/17 09:05:29;;;;;;;3.50;2.30;;;14.70;72.00;;;;;;5054735;28;20527;-47
2022/09/17 09:08:12;;;;;;;11.77;2.90;;;14.70;72.50;;;;;;5046316;28;20514;-48
2022/09/17 09:10:54;;;;;;;9.57;2.30;;;14.70;72.60;;;;;;5052057;28;20512;-48
2022/09/17 09:13:27;;;;;;;5.77;2.03;;;14.80;71.80;;;;;;5045220;28;20597;-48
2022/09/17 09:16:10;;;;;;;5.43;1.70;;;14.80;71.80;;;;;;5053282;28;20520;-48
2022/09/17 09:18:39;;;;;;;4.27;1.40;;;14.80;72.80;;;;;;5040981;28;20461;-48
2022/09/17 09:21:17;;;;;;;6.37;1.87;;;14.90;70.50;;;;;;5039442;28;20458;-48
2022/09/17 09:24:01;;;;;;;3.33;1.77;;;14.90;71.10;;;;;;5035930;28;20523;-48
2022/09/17 09:27:06;;;;;;;4.53;2.73;;;15.00;69.50;;;;;;5030422;28;20577;-45
2022/09/17 09:30:09;;;;;;;5.60;1.80;;;15.00;70.40;;;;;;5023373;28;20522;-46
2022/09/17 09:33:04;;;;;;;2.50;1.90;;;15.00;70.90;;;;;;5032172;28;20517;-46
2022/09/17 09:35:38;;;;;;;3.20;1.40;;;14.90;68.20;;;;;;5042435;28;20483;-46
2022/09/17 09:38:30;;;;;;;2.40;1.23;;;14.90;69.20;;;;;;5032301;28;20475;-45
2022/09/17 09:41:16;;;;;;;4.77;1.50;;;14.80;70.70;;;;;;5034297;28;20521;-45
2022/09/17 09:43:52;;;;;;;2.87;1.17;;;14.70;72.80;;;;;;5040427;28;20552;-46
2022/09/17 09:46:43;;;;;;;2.67;1.60;;;14.50;74.60;;;;;;5034888;28;20998;-46
2022/09/17 09:49:24;;;;;;;2.40;1.57;;;14.30;76.40;;;;;;5035613;28;21005;-46
2022/09/17 09:51:57;;;;;;;3.70;1.57;;;14.20;77.40;;;;;;5033305;28;20892;-46
2022/09/17 09:54:32;;;;;;;3.60;1.23;;;14.00;78.30;;;;;;5030240;28;20493;-46
2022/09/17 09:57:11;;;;;;;3.37;1.27;;;13.90;79.20;;;;;;5032098;28;20569;-46
2022/09/17 09:59:40;;;;;;;4.00;1.43;;;13.90;79.70;;;;;;5028808;28;20872;-46
2022/09/17 10:02:07;;;;;;;3.13;1.17;;;13.80;79.70;;;;;;5029350;28;21020;-46
2022/09/17 10:04:34;;;;;;;1.60;1.13;;;13.80;80.00;;;;;;5032083;28;20460;-46
2022/09/17 10:07:05;;;;;;;4.20;1.67;;;13.80;80.60;;;;;;5027159;28;20498;-46
2022/09/17 10:09:35;;;;;;;1.37;0.77;;;13.70;80.90;;;;;;5034968;28;20565;-45
2022/09/17 10:12:08;;;;;;;1.10;0.93;;;13.70;81.20;;;;;;5031010;28;20545;-46
2022/09/17 10:14:37;;;;;;;5.00;1.53;;;13.80;80.80;;;;;;5029905;28;20588;-46
2022/09/17 10:17:30;;;;;;;2.30;1.20;;;13.80;80.80;;;;;;5031853;28;20538;-46
2022/09/17 10:20:04;;;;;;;1.47;1.00;;;13.80;80.70;;;;;;5025826;28;20618;-48
2022/09/17 10:22:34;;;;;;;2.30;1.17;;;13.80;80.50;;;;;;5029349;28;20494;-48
2022/09/17 10:25:02;;;;;;;5.13;1.93;;;13.80;79.60;;;;;;5032647;28;20559;-48
2022/09/17 10:27:30;;;;;;;2.30;1.10;;;13.80;80.10;;;;;;5034171;28;20506;-48
2022/09/17 10:30:17;;;;;;;5.33;1.13;;;13.80;79.50;;;;;;5029821;28;20574;-48
2022/09/17 10:33:24;;;;;;;2.80;0.80;;;13.80;79.40;;;;;;5030110;28;20872;-48
2022/09/17 10:36:05;;;;;;;2.83;0.83;;;13.90;79.30;;;;;;5035749;28;20599;-48
2022/09/17 10:38:40;;;;;;;3.13;1.00;;;13.90;79.30;;;;;;5030515;28;20466;-48
2022/09/17 10:41:20;;;;;;;2.47;1.30;;;13.80;79.90;;;;;;5035447;28;20489;-48
2022/09/17 10:43:50;;;;;;;1.33;1.00;;;13.80;80.60;;;;;;5037015;28;20494;-45
2022/09/17 10:46:25;;;;;;;3.23;1.10;;;13.90;80.00;;;;;;5032775;28;20553;-45
2022/09/17 10:49:07;;;;;;;5.20;1.20;;;13.90;79.40;;;;;;5031731;28;20904;-46
2022/09/17 10:51:33;;;;;;;2.77;1.23;;;14.00;79.10;;;;;;5033501;28;20490;-45
2022/09/17 10:54:16;;;;;;;3.30;1.20;;;14.10;78.70;;;;;;5039443;28;20490;-46
2022/09/17 10:56:52;;;;;;;4.03;1.37;;;14.20;77.90;;;;;;5047453;28;20455;-46
2022/09/17 10:59:36;;;;;;;5.63;1.80;;;14.30;77.20;;;;;;5043607;28;20470;-46
2022/09/17 11:02:22;;;;;;;4.10;1.10;;;14.40;76.00;;;;;;5043216;28;20458;-46
2022/09/17 11:04:53;;;;;;;8.47;1.40;;;14.50;75.00;;;;;;5045100;28;20967;-46
2022/09/17 11:07:31;;;;;;;8.07;1.50;;;14.60;72.50;;;;;;5046736;28;20988;-46
2022/09/17 11:10:14;;;;;;;7.10;1.20;;;14.70;72.50;;;;;;5046228;28;20680;-48
2022/09/17 11:13:02;;;;;;;8.77;1.60;;;14.80;70.70;;;;;;5034531;28;20866;-47
2022/09/17 11:15:34;;;;;;;6.23;1.43;;;14.80;71.40;;;;;;5033901;28;20494;-47
2022/09/17 11:18:44;;;;;;;4.33;1.93;;;14.80;70.80;;;;;;5031588;28;20551;-47
2022/09/17 11:21:31;;;;;;;1.00;0.80;;;14.70;71.90;;;;;;5025738;28;20815;-48
2022/09/17 11:24:19;;;;;;;5.03;1.00;;;14.70;71.30;;;;;;5028464;28;20462;-48
2022/09/17 11:27:08;;;;;;;6.87;1.87;;;14.70;71.30;;;;;;5032321;28;20458;-48
2022/09/17 11:29:58;;;;;;;2.50;0.93;;;14.70;71.30;;;;;;5026498;28;20593;-48
2022/09/17 11:32:47;;;;;;;4.43;1.03;;;14.60;71.70;;;;;;5030441;28;20494;-48
2022/09/17 11:35:26;;;;;;;2.87;0.70;;;14.60;72.10;;;;;;5035653;28;20577;-48
2022/09/17 11:38:05;;;;;;;3.43;0.90;;;14.70;69.50;;;;;;5034468;28;21164;-48
2022/09/17 11:40:45;;;;;;;5.80;1.03;;;14.70;67.50;;;;;;5033778;28;20502;-48
2022/09/17 11:43:28;;;;;;;3.57;0.77;;;14.80;66.70;;;;;;5027768;28;20649;-46
2022/09/17 11:46:15;;;;;;;9.40;2.13;;;14.90;66.40;;;;;;5032791;28;20995;-46
2022/09/17 11:49:09;;;;;;;4.23;0.77;;;14.90;68.00;;;;;;5033462;28;20458;-47
2022/09/17 11:51:51;;;;;;;2.87;1.07;;;14.90;67.70;;;;;;5037315;28;20528;-48
2022/09/17 11:54:34;;;;;;;1.73;1.00;;;14.90;67.90;;;;;;5037001;28;21070;-46
2022/09/17 11:57:36;;;;;;;1.80;1.10;;;15.00;65.90;;;;;;5027084;28;21064;-45
2022/09/17 12:00:09;;;;;;;3.53;0.80;;;15.00;67.00;;;;;;5022127;28;20467;-48
2022/09/17 12:03:11;;;;;;;3.60;1.33;;;15.10;66.00;;;;;;5027999;28;20505;-48
2022/09/17 12:05:54;;;;;;;7.13;1.57;;;15.20;66.40;;;;;;4994248;28;20526;-47
2022/09/17 12:08:41;;;;;;;5.10;0.90;;;15.20;67.10;;;;;;5031685;28;20458;-48
2022/09/17 12:11:40;;;;;;;1.77;0.90;;;15.30;66.70;;;;;;5029959;28;20585;-48
2022/09/17 12:14:23;;;;;;;1.00;0.80;;;15.40;62.50;;;;;;5033326;28;20467;-48
2022/09/17 12:16:57;;;;;;;1.87;0.53;;;15.60;61.30;;;;;;5033276;28;20881;-49
2022/09/17 12:19:26;;;;;;;4.10;0.77;;;15.60;63.00;;;;;;5025948;28;20558;-48
2022/09/17 12:22:14;;;;;;;1.83;0.57;;;15.60;62.90;;;;;;5034146;28;21023;-48
2022/09/17 12:24:41;;;;;;;1.57;0.93;;;15.70;59.60;;;;;;5035676;28;20493;-48
2022/09/17 12:27:08;;;;;;;5.53;0.80;;;15.80;60.00;;;;;;5030107;28;20549;-48
2022/09/17 12:30:05;;;;;;;2.53;0.80;;;15.70;62.20;;;;;;5034833;28;20988;-48
2022/09/17 12:33:12;;;;;;;2.80;0.63;;;15.80;60.80;;;;;;5025122;28;20456;-48
2022/09/17 12:36:05;;;;;;;2.47;1.03;;;15.90;60.60;;;;;;5038015;28;21007;-47
2022/09/17 12:38:52;;;;;;;1.70;0.60;;;16.00;60.00;;;;;;5019350;28;20988;-47
2022/09/17 12:41:34;;;;;;;2.23;0.93;;;16.00;60.50;;;;;;5041039;28;20519;-47
2022/09/17 12:44:22;;;;;;;2.90;0.80;;;16.00;58.20;;;;;;5044469;28;20454;-47
2022/09/17 12:47:07;;;;;;;1.67;0.60;;;16.00;59.40;;;;;;5046816;28;20456;-47
2022/09/17 12:50:12;;;;;;;1.93;0.53;;;16.10;59.90;;;;;;5044531;28;20515;-47
2022/09/17 12:52:52;;;;;;;2.63;0.50;;;16.10;60.30;;;;;;5044383;28;20520;-47
2022/09/17 12:55:36;;;;;;;4.20;0.70;;;16.20;59.30;;;;;;5050070;28;20516;-47
2022/09/17 12:58:32;;;;;;;1.63;0.60;;;16.20;61.00;;;;;;5043576;28;20510;-47
2022/09/17 13:01:02;;;;;;;1.23;0.43;;;16.20;60.90;;;;;;5053008;28;21075;-47
2022/09/17 13:03:54;;;;;;;3.80;0.80;;;16.30;59.80;;;;;;5049486;28;20463;-47
2022/09/17 13:06:21;;;;;;;3.37;0.57;;;16.30;59.70;;;;;;5045280;28;20467;-47
2022/09/17 13:09:11;;;;;;;3.17;0.80;;;16.30;59.30;;;;;;5047766;28;20471;-47
2022/09/17 13:11:48;;;;;;;1.03;0.60;;;16.30;57.60;;;;;;5056307;28;20497;-47
2022/09/17 13:14:18;;;;;;;2.20;0.80;;;16.30;58.10;;;;;;5045737;28;20545;-47
2022/09/17 13:16:45;;;;;;;2.67;0.60;;;16.20;59.40;;;;;;5051003;28;20462;-47
2022/09/17 13:19:14;;;;;;;8.33;0.80;;;16.20;60.30;;;;;;5050313;28;20982;-47
2022/09/17 13:21:59;;;;;;;1.70;0.77;;;16.10;61.20;;;;;;5048499;28;20462;-47